Time;durP1;ratioP1;P1;durP2;ratioP2;P2;SDS_P1;SDS_P2;PMS_P1;PMS_P2;Temp;Humidity;BMP_temperature;BMP_pressure;BME280_temperature;BME280_humidity;BME280_pressure;Samples;Min_cycle;Max_cycle;Signal;HPM_P1;HPM_P2
2022/09/27 00:01:44;;;;;;;2.93;2.10;;;;;;;17.19;99.48;98209.59;5069878;28;20202;-64
2022/09/27 00:04:11;;;;;;;2.30;1.70;;;;;;;17.19;99.07;98188.09;5069877;28;20223;-63
2022/09/27 00:06:38;;;;;;;3.57;2.13;;;;;;;17.12;99.61;98182.03;5070079;28;20207;-63
2022/09/27 00:09:05;;;;;;;3.20;2.23;;;;;;;17.02;100.00;98186.66;5070182;28;20218;-63
2022/09/27 00:11:34;;;;;;;3.20;2.17;;;;;;;16.92;100.00;98195.41;5069764;28;20203;-64
2022/09/27 00:14:02;;;;;;;2.67;2.07;;;;;;;16.95;100.00;98207.19;5069895;28;20248;-63
2022/09/27 00:16:31;;;;;;;3.83;2.37;;;;;;;16.86;100.00;98208.22;5069589;28;20312;-63
2022/09/27 00:19:00;;;;;;;3.00;2.20;;;;;;;16.90;100.00;98214.63;5069738;28;20300;-64
2022/09/27 00:21:29;;;;;;;2.90;2.37;;;;;;;16.91;100.00;98206.72;5069635;28;20260;-64
2022/09/27 00:23:56;;;;;;;2.80;2.17;;;;;;;16.84;100.00;98215.31;5069669;28;20218;-64
2022/09/27 00:26:23;;;;;;;3.67;2.13;;;;;;;16.89;100.00;98206.09;5069761;28;20221;-64
2022/09/27 00:28:50;;;;;;;3.33;2.00;;;;;;;16.83;100.00;98206.78;5070023;28;20219;-64
2022/09/27 00:31:20;;;;;;;2.40;1.77;;;;;;;16.83;100.00;98198.25;5069384;28;20202;-63
2022/09/27 00:33:48;;;;;;;2.60;2.07;;;;;;;16.81;100.00;98190.66;5069656;28;20222;-64
2022/09/27 00:36:17;;;;;;;3.73;1.63;;;;;;;16.78;100.00;98191.00;5069310;28;20190;-64
2022/09/27 00:38:44;;;;;;;1.40;1.30;;;;;;;16.73;100.00;98198.44;5069663;28;20280;-64
2022/09/27 00:41:15;;;;;;;2.00;1.20;;;;;;;16.77;100.00;98188.59;5069168;28;20222;-64
2022/09/27 00:43:48;;;;;;;2.13;1.33;;;;;;;16.85;100.00;98191.94;5069228;28;20223;-64
2022/09/27 00:46:20;;;;;;;2.17;1.53;;;;;;;16.79;100.00;98192.63;5069505;28;20661;-64
2022/09/27 00:48:47;;;;;;;1.50;1.23;;;;;;;16.79;100.00;98190.03;5069358;28;20699;-64
2022/09/27 00:51:16;;;;;;;1.97;1.57;;;;;;;16.73;100.00;98188.13;5069225;28;20205;-64
2022/09/27 00:53:50;;;;;;;1.73;1.47;;;;;;;16.77;100.00;98189.41;5069613;28;20233;-64
2022/09/27 00:56:22;;;;;;;1.00;0.90;;;;;;;16.83;100.00;98193.88;5069378;28;20200;-64
2022/09/27 00:58:55;;;;;;;1.80;1.40;;;;;;;16.72;100.00;98196.81;5069514;28;20214;-64
2022/09/27 01:01:22;;;;;;;2.13;1.30;;;;;;;16.80;100.00;98196.81;5069377;28;20213;-64
2022/09/27 01:03:55;;;;;;;1.57;1.20;;;;;;;16.87;100.00;98197.75;5069160;28;20231;-64
2022/09/27 01:06:24;;;;;;;2.03;1.60;;;;;;;16.84;100.00;98199.84;5069064;28;20187;-63
2022/09/27 01:08:51;;;;;;;1.47;1.03;;;;;;;16.77;100.00;98184.25;5069172;28;20710;-64
2022/09/27 01:11:32;;;;;;;2.33;1.30;;;;;;;16.74;100.00;98184.56;5068957;28;20198;-64
2022/09/27 01:14:11;;;;;;;1.33;1.23;;;;;;;16.76;100.00;98190.38;5069485;28;20718;-64
2022/09/27 01:16:48;;;;;;;1.70;1.60;;;;;;;16.81;100.00;98195.03;5069004;28;20718;-63
2022/09/27 01:19:43;;;;;;;1.60;1.37;;;;;;;16.88;100.00;98191.59;5069035;28;20317;-64
2022/09/27 01:22:15;;;;;;;1.07;0.97;;;;;;;16.87;100.00;98184.00;5068843;28;20199;-64
2022/09/27 01:24:57;;;;;;;0.90;0.70;;;;;;;16.90;100.00;98189.66;5069383;28;20209;-64
2022/09/27 01:27:59;;;;;;;1.63;1.30;;;;;;;16.89;100.00;98192.38;5069267;28;20231;-64
2022/09/27 01:30:38;;;;;;;1.40;1.20;;;;;;;16.90;100.00;98187.06;5066382;28;20671;-63
2022/09/27 01:33:31;;;;;;;1.20;1.00;;;;;;;16.93;100.00;98178.97;5069282;28;20226;-63
2022/09/27 01:36:17;;;;;;;1.43;1.17;;;;;;;16.95;100.00;98161.50;5069055;28;20646;-63
2022/09/27 01:38:56;;;;;;;0.90;0.73;;;;;;;16.85;100.00;98171.28;5068778;28;20629;-64
2022/09/27 01:41:30;;;;;;;1.00;0.90;;;;;;;16.85;100.00;98166.13;5068770;28;20191;-64
2022/09/27 01:44:03;;;;;;;1.40;1.30;;;;;;;16.84;100.00;98153.38;5068791;28;20224;-64
2022/09/27 01:46:35;;;;;;;1.67;1.10;;;;;;;16.75;100.00;98155.19;5068711;28;20716;-63
2022/09/27 01:49:08;;;;;;;1.47;1.10;;;;;;;16.77;100.00;98155.06;5068845;28;20220;-64
2022/09/27 01:51:42;;;;;;;1.83;1.20;;;;;;;16.90;100.00;98142.34;5069050;28;20202;-63
2022/09/27 01:54:15;;;;;;;1.40;1.30;;;;;;;16.73;100.00;98144.25;5072963;28;20226;-63
2022/09/27 01:56:47;;;;;;;0.97;0.87;;;;;;;16.79;100.00;98135.84;5072335;28;20293;-63
2022/09/27 01:59:18;;;;;;;1.30;1.20;;;;;;;16.84;100.00;98132.72;5072393;28;20679;-64
2022/09/27 02:01:50;;;;;;;1.60;1.20;;;;;;;16.78;100.00;98133.41;5072216;28;20653;-63
2022/09/27 02:04:21;;;;;;;1.57;0.90;;;;;;;16.66;100.00;98138.16;5072511;28;20238;-64
2022/09/27 02:06:53;;;;;;;2.07;0.93;;;;;;;16.76;100.00;98128.44;5072287;28;20658;-64
2022/09/27 02:09:23;;;;;;;1.47;0.80;;;;;;;16.82;100.00;98112.25;5072201;28;20729;-64
2022/09/27 02:11:55;;;;;;;1.23;1.13;;;;;;;16.73;100.00;98114.06;5072171;28;20670;-64
2022/09/27 02:14:26;;;;;;;0.97;0.97;;;;;;;16.62;100.00;98121.41;5072121;28;20280;-64
2022/09/27 02:16:59;;;;;;;1.10;1.00;;;;;;;16.63;100.00;98125.59;5071934;28;20199;-64
2022/09/27 02:19:38;;;;;;;1.87;1.40;;;;;;;16.80;100.00;98114.19;5071965;28;20226;-64
2022/09/27 02:22:15;;;;;;;1.47;1.00;;;;;;;16.73;100.00;98106.31;5072003;28;20209;-64
2022/09/27 02:24:46;;;;;;;1.63;1.17;;;;;;;16.46;100.00;98119.75;5072181;28;20206;-64
2022/09/27 02:27:21;;;;;;;1.60;1.30;;;;;;;16.53;100.00;98116.31;5071896;28;20214;-64
2022/09/27 02:29:53;;;;;;;1.00;0.90;;;;;;;16.48;100.00;98118.59;5072254;28;20586;-64
2022/09/27 02:32:21;;;;;;;1.50;1.20;;;;;;;16.26;100.00;98120.22;5071653;28;20683;-64
2022/09/27 02:34:50;;;;;;;1.07;1.03;;;;;;;16.18;100.00;98119.47;5071972;28;20296;-64
2022/09/27 02:37:18;;;;;;;1.60;1.00;;;;;;;16.25;100.00;98123.75;5071549;28;20229;-64
2022/09/27 02:39:45;;;;;;;1.03;0.93;;;;;;;16.30;100.00;98115.50;5071713;28;20202;-64
2022/09/27 02:42:12;;;;;;;2.10;1.57;;;;;;;16.30;100.00;98121.47;5071563;28;20206;-64
2022/09/27 02:44:40;;;;;;;1.03;0.93;;;;;;;16.24;100.00;98116.19;5071623;28;20264;-64
2022/09/27 02:47:29;;;;;;;1.30;1.00;;;;;;;16.38;100.00;98118.03;5071432;28;20236;-63
2022/09/27 02:50:09;;;;;;;1.70;1.30;;;;;;;16.50;100.00;98116.66;5071804;28;20661;-63
2022/09/27 02:52:47;;;;;;;1.47;1.17;;;;;;;16.58;100.00;98112.41;5071494;28;20233;-63
2022/09/27 02:55:29;;;;;;;0.80;0.80;;;;;;;16.56;100.00;98101.47;5071511;28;20250;-63
2022/09/27 02:58:10;;;;;;;1.20;1.10;;;;;;;16.37;100.00;98090.63;5071377;28;20241;-63
2022/09/27 03:00:47;;;;;;;1.17;1.00;;;;;;;16.48;100.00;98097.97;5071514;28;20585;-63
2022/09/27 03:03:21;;;;;;;1.10;1.00;;;;;;;16.49;100.00;98093.59;5071168;28;20224;-63
2022/09/27 03:05:54;;;;;;;1.40;1.30;;;;;;;16.58;100.00;98091.75;5071550;28;20607;-63
2022/09/27 03:08:21;;;;;;;1.30;1.00;;;;;;;16.64;100.00;98085.91;5071390;28;20231;-63
2022/09/27 03:10:48;;;;;;;1.63;1.00;;;;;;;16.66;100.00;98089.13;5071095;28;20194;-65
2022/09/27 03:13:15;;;;;;;0.83;0.83;;;;;;;16.72;100.00;98083.25;5070912;28;20321;-63
2022/09/27 03:15:42;;;;;;;1.20;1.10;;;;;;;16.80;100.00;98085.81;5070921;28;20195;-63
2022/09/27 03:18:08;;;;;;;1.70;1.00;;;;;;;16.86;100.00;98085.09;5070756;28;20226;-65
2022/09/27 03:20:37;;;;;;;0.70;0.70;;;;;;;16.85;100.00;98083.50;5070953;28;20202;-65
2022/09/27 03:23:04;;;;;;;1.20;0.77;;;;;;;16.86;100.00;98087.69;5070849;28;20222;-65
2022/09/27 03:25:30;;;;;;;1.27;1.00;;;;;;;16.92;100.00;98081.81;5070750;28;20213;-64
2022/09/27 03:27:57;;;;;;;0.93;0.83;;;;;;;16.91;100.00;98075.06;5070712;28;20219;-63
2022/09/27 03:30:24;;;;;;;0.77;0.77;;;;;;;16.93;100.00;98070.53;5070673;28;20203;-65
2022/09/27 03:32:51;;;;;;;0.87;0.87;;;;;;;17.00;100.00;98069.81;5071012;28;20485;-65
2022/09/27 03:35:18;;;;;;;1.33;0.97;;;;;;;16.96;100.00;98069.38;5070590;28;20194;-63
2022/09/27 03:37:47;;;;;;;1.23;1.07;;;;;;;16.94;100.00;98071.31;5070816;28;20245;-56
2022/09/27 03:40:14;;;;;;;0.83;0.83;;;;;;;16.95;100.00;98063.38;5070384;28;20208;-59
2022/09/27 03:42:40;;;;;;;1.40;1.30;;;;;;;16.91;100.00;98064.72;5070179;28;20219;-65
2022/09/27 03:45:08;;;;;;;1.20;1.10;;;;;;;16.92;100.00;98061.16;5070445;28;20199;-65
2022/09/27 03:47:35;;;;;;;0.80;0.80;;;;;;;16.88;100.00;98054.75;5070159;28;20219;-65
2022/09/27 03:50:02;;;;;;;0.70;0.60;;;;;;;16.85;100.00;98057.69;5070455;28;20667;-65
2022/09/27 03:52:29;;;;;;;1.20;1.00;;;;;;;16.84;100.00;98050.94;5069848;28;20662;-65
2022/09/27 03:54:57;;;;;;;1.30;1.07;;;;;;;16.75;100.00;98046.75;5070287;28;20689;-58
2022/09/27 03:57:24;;;;;;;1.40;1.07;;;;;;;16.58;100.00;98040.16;5070135;28;20221;-65
2022/09/27 03:59:51;;;;;;;1.23;1.13;;;;;;;16.61;100.00;98038.03;5070438;28;20202;-65
2022/09/27 04:02:18;;;;;;;0.80;0.77;;;;;;;16.65;100.00;98030.75;5069988;28;20241;-58
2022/09/27 04:04:45;;;;;;;1.37;1.20;;;;;;;16.52;100.00;98032.16;5070117;28;20694;-58
2022/09/27 04:07:12;;;;;;;0.77;0.70;;;;;;;16.40;100.00;98025.78;5069748;28;20190;-58
2022/09/27 04:09:40;;;;;;;1.07;0.97;;;;;;;16.38;100.00;98017.44;5070004;28;20693;-58
2022/09/27 04:12:09;;;;;;;2.40;1.00;;;;;;;16.34;100.00;98013.59;5069753;28;20194;-58
2022/09/27 04:14:36;;;;;;;1.57;1.00;;;;;;;16.31;100.00;98016.50;5069525;28;20202;-65
2022/09/27 04:17:03;;;;;;;1.77;1.10;;;;;;;16.19;100.00;98012.75;5069866;28;20202;-65
2022/09/27 04:19:29;;;;;;;1.17;1.03;;;;;;;16.24;100.00;98013.81;5070297;28;20247;-65
2022/09/27 04:21:56;;;;;;;1.10;1.00;;;;;;;16.14;100.00;98008.09;5069622;28;20205;-58
2022/09/27 04:24:24;;;;;;;1.20;1.10;;;;;;;16.17;100.00;98001.78;5070005;28;20226;-58
2022/09/27 04:26:51;;;;;;;1.57;1.17;;;;;;;16.18;100.00;97993.88;5069652;28;20238;-65
2022/09/27 04:29:19;;;;;;;2.00;1.40;;;;;;;16.15;100.00;97988.28;5069570;28;20227;-65
2022/09/27 04:31:46;;;;;;;1.37;0.73;;;;;;;16.16;100.00;97989.88;5069526;28;20194;-64
2022/09/27 04:34:13;;;;;;;1.33;1.03;;;;;;;16.11;100.00;97971.53;5069482;28;20230;-65
2022/09/27 04:36:39;;;;;;;1.20;1.10;;;;;;;16.06;100.00;97970.28;5069597;28;20205;-58
2022/09/27 04:39:08;;;;;;;1.07;0.77;;;;;;;15.98;100.00;97978.09;5069339;28;20234;-65
2022/09/27 04:41:35;;;;;;;1.23;1.10;;;;;;;16.03;100.00;97975.78;5069467;28;20203;-65
2022/09/27 04:44:03;;;;;;;1.13;0.93;;;;;;;15.95;100.00;97968.13;5069669;28;20230;-64
2022/09/27 04:46:32;;;;;;;2.23;1.33;;;;;;;16.06;100.00;97975.44;5069401;28;20297;-58
2022/09/27 04:49:00;;;;;;;1.60;1.30;;;;;;;16.07;100.00;97977.03;5069407;28;20268;-57
2022/09/27 04:51:28;;;;;;;1.10;0.97;;;;;;;16.09;100.00;97970.94;5069301;28;20206;-64
2022/09/27 04:53:56;;;;;;;1.80;0.70;;;;;;;16.10;100.00;97980.25;5069179;28;20245;-64
2022/09/27 04:56:23;;;;;;;1.83;1.27;;;;;;;16.12;100.00;97983.47;5069298;28;20204;-65
2022/09/27 04:58:50;;;;;;;1.17;0.93;;;;;;;16.09;100.00;97973.50;5069451;28;20329;-64
2022/09/27 05:01:17;;;;;;;2.90;1.87;;;;;;;16.07;100.00;97961.56;5069541;28;20203;-65
2022/09/27 05:03:45;;;;;;;1.37;1.27;;;;;;;16.11;100.00;97974.13;5069713;28;20220;-58
2022/09/27 05:06:12;;;;;;;1.87;1.17;;;;;;;16.03;100.00;97970.63;5069252;28;20220;-58
2022/09/27 05:08:39;;;;;;;2.00;1.80;;;;;;;16.02;100.00;97966.44;5069436;28;20227;-58
2022/09/27 05:11:06;;;;;;;2.17;1.40;;;;;;;16.07;100.00;97966.72;5069728;28;20209;-65
2022/09/27 05:13:32;;;;;;;3.47;1.70;;;;;;;16.05;100.00;97958.34;5069042;28;20222;-64
2022/09/27 05:16:03;;;;;;;2.17;1.30;;;;;;;16.13;100.00;97964.44;5069186;28;20194;-65
2022/09/27 05:18:30;;;;;;;1.90;1.43;;;;;;;16.16;100.00;97967.47;5069208;28;20333;-65
2022/09/27 05:20:58;;;;;;;1.63;1.37;;;;;;;16.17;100.00;97963.09;5069305;28;20756;-58
2022/09/27 05:23:26;;;;;;;2.30;1.87;;;;;;;16.19;100.00;97966.31;5068885;28;20293;-64
2022/09/27 05:25:54;;;;;;;1.67;1.27;;;;;;;16.23;100.00;97976.13;5069156;28;20205;-64
2022/09/27 05:28:21;;;;;;;1.70;1.47;;;;;;;16.28;100.00;97967.84;5072480;28;20222;-64
2022/09/27 05:30:48;;;;;;;1.23;1.10;;;;;;;16.27;100.00;97961.91;5073252;28;20199;-64
2022/09/27 05:33:15;;;;;;;1.97;1.47;;;;;;;16.26;100.00;97969.78;5073276;28;20232;-65
2022/09/27 05:35:43;;;;;;;2.23;1.37;;;;;;;16.21;100.00;97972.13;5072872;28;20223;-64
2022/09/27 05:38:12;;;;;;;1.77;1.37;;;;;;;16.24;100.00;97966.59;5072909;28;20764;-65
2022/09/27 05:40:40;;;;;;;1.43;1.13;;;;;;;16.26;100.00;97956.91;5072804;28;20212;-64
2022/09/27 05:43:07;;;;;;;2.10;1.43;;;;;;;16.30;100.00;97968.50;5072662;28;20279;-64
2022/09/27 05:45:34;;;;;;;1.70;1.23;;;;;;;16.40;100.00;97956.13;5072738;28;20206;-64
2022/09/27 05:48:01;;;;;;;1.53;1.40;;;;;;;16.47;100.00;97951.88;5072790;28;20225;-64
2022/09/27 05:50:28;;;;;;;2.20;1.47;;;;;;;16.55;100.00;97952.75;5072671;28;20205;-63
2022/09/27 05:52:55;;;;;;;2.57;1.60;;;;;;;16.57;100.00;97966.31;5072347;28;20245;-64
2022/09/27 05:55:23;;;;;;;1.67;1.57;;;;;;;16.63;100.00;97970.75;5072537;28;20199;-64
2022/09/27 05:57:58;;;;;;;1.73;1.37;;;;;;;16.65;100.00;97979.94;5072232;28;20706;-64
2022/09/27 06:00:27;;;;;;;2.40;1.93;;;;;;;16.65;100.00;97981.72;5072785;28;20717;-64
2022/09/27 06:02:55;;;;;;;1.67;1.10;;;;;;;16.63;100.00;97976.72;5072301;28;20856;-64
2022/09/27 06:05:22;;;;;;;2.90;1.57;;;;;;;16.61;100.00;97977.84;5072339;28;20621;-64
2022/09/27 06:07:49;;;;;;;1.73;1.20;;;;;;;16.53;100.00;97974.41;5072495;28;20222;-64
2022/09/27 06:10:17;;;;;;;1.93;1.50;;;;;;;16.59;100.00;97969.50;5072447;28;20203;-64
2022/09/27 06:12:46;;;;;;;2.00;1.40;;;;;;;16.63;100.00;97965.59;5072077;28;20228;-64
2022/09/27 06:15:13;;;;;;;2.23;1.53;;;;;;;16.67;100.00;97977.19;5072262;28;20195;-64
2022/09/27 06:17:40;;;;;;;1.87;1.17;;;;;;;16.66;100.00;97983.31;5071739;28;20219;-64
2022/09/27 06:20:08;;;;;;;3.00;1.83;;;;;;;16.55;100.00;97983.72;5072038;28;20230;-65
2022/09/27 06:22:36;;;;;;;2.00;1.70;;;;;;;16.63;100.00;97973.34;5072008;28;20707;-64
2022/09/27 06:25:03;;;;;;;2.60;1.67;;;;;;;16.56;100.00;97960.34;5072147;28;20260;-65
2022/09/27 06:27:30;;;;;;;3.77;1.40;;;;;;;16.42;100.00;97954.19;5071902;28;20226;-65
2022/09/27 06:29:59;;;;;;;2.00;1.60;;;;;;;16.40;100.00;97948.38;5071982;28;20674;-65
2022/09/27 06:32:26;;;;;;;2.10;1.47;;;;;;;16.28;100.00;97931.75;5071815;28;20758;-65
2022/09/27 06:34:52;;;;;;;2.23;1.77;;;;;;;16.20;100.00;97918.91;5072048;28;20659;-65
2022/09/27 06:37:19;;;;;;;3.30;1.70;;;;;;;16.12;100.00;97916.44;5071750;28;20202;-65
2022/09/27 06:39:47;;;;;;;1.90;1.70;;;;;;;16.21;100.00;97923.91;5071296;28;20722;-65
2022/09/27 06:42:17;;;;;;;1.70;1.50;;;;;;;16.17;100.00;97919.25;5071632;28;20203;-65
2022/09/27 06:44:46;;;;;;;1.67;1.33;;;;;;;16.17;100.00;97924.44;5071561;28;20296;-65
2022/09/27 06:47:14;;;;;;;3.00;1.70;;;;;;;16.18;100.00;97936.38;5071475;28;20204;-64
2022/09/27 06:49:41;;;;;;;0.90;0.90;;;;;;;16.06;100.00;97934.19;5071565;28;20287;-65
2022/09/27 06:52:08;;;;;;;1.80;1.57;;;;;;;16.10;100.00;97946.75;5071326;28;20202;-64
2022/09/27 06:54:35;;;;;;;1.90;1.30;;;;;;;16.17;100.00;97956.16;5071537;28;20198;-65
2022/09/27 06:57:02;;;;;;;2.77;1.70;;;;;;;16.21;100.00;97966.97;5071365;28;20198;-65
2022/09/27 07:02:14;;;;;;;2.27;1.37;;;;;;;16.33;100.00;97986.19;5071075;28;20257;-65
2022/09/27 07:04:41;;;;;;;1.90;1.50;;;;;;;16.37;100.00;97978.91;5071281;28;20205;-65
2022/09/27 07:07:09;;;;;;;1.73;1.40;;;;;;;16.50;100.00;97982.50;5071029;28;20675;-65
2022/09/27 07:09:38;;;;;;;1.87;1.50;;;;;;;16.56;100.00;97977.59;5071330;28;20285;-65
2022/09/27 07:12:05;;;;;;;2.10;1.40;;;;;;;16.63;100.00;97992.19;5071113;28;20225;-65
2022/09/27 07:14:32;;;;;;;2.07;1.60;;;;;;;16.65;100.00;98010.09;5071203;28;20231;-65
2022/09/27 07:16:59;;;;;;;2.60;1.67;;;;;;;16.66;100.00;98012.50;5070890;28;20194;-65
2022/09/27 07:19:27;;;;;;;2.17;1.50;;;;;;;16.66;100.00;97996.22;5070953;28;20636;-65
2022/09/27 07:21:54;;;;;;;1.77;1.27;;;;;;;16.70;100.00;97994.91;5070958;28;20218;-65
2022/09/27 07:24:21;;;;;;;2.63;1.60;;;;;;;16.73;100.00;97997.13;5071232;28;20228;-65
2022/09/27 07:26:48;;;;;;;2.13;1.67;;;;;;;16.87;100.00;97998.13;5070924;28;20202;-65
2022/09/27 07:29:15;;;;;;;1.33;1.20;;;;;;;16.79;100.00;97993.06;5070636;28;20231;-65
2022/09/27 07:31:42;;;;;;;2.60;1.73;;;;;;;16.74;100.00;98004.66;5070797;28;20271;-65
2022/09/27 07:34:11;;;;;;;1.53;1.10;;;;;;;16.77;100.00;98000.97;5070570;28;20218;-65
2022/09/27 07:36:39;;;;;;;2.20;1.57;;;;;;;16.66;100.00;97988.47;5070451;28;20191;-65
2022/09/27 07:39:06;;;;;;;2.00;1.60;;;;;;;16.64;100.00;97982.66;5070689;28;20239;-65
2022/09/27 07:41:33;;;;;;;1.47;1.20;;;;;;;16.65;100.00;97968.81;5070529;28;20199;-65
2022/09/27 07:44:00;;;;;;;2.43;1.90;;;;;;;16.71;100.00;97979.22;5070650;28;20225;-65
2022/09/27 07:46:27;;;;;;;1.30;1.20;;;;;;;16.83;100.00;97977.03;5070270;28;20202;-65
2022/09/27 07:48:54;;;;;;;2.13;1.50;;;;;;;16.83;100.00;97977.03;5070242;28;20230;-65
2022/09/27 07:51:21;;;;;;;2.67;1.80;;;;;;;16.81;100.00;97978.19;5069789;28;20207;-65
2022/09/27 07:53:49;;;;;;;2.13;1.53;;;;;;;16.87;100.00;97978.28;5070146;28;20232;-65
2022/09/27 07:56:16;;;;;;;1.60;1.30;;;;;;;16.69;100.00;97975.19;5070041;28;20702;-65
2022/09/27 07:58:43;;;;;;;2.63;1.60;;;;;;;16.61;100.00;97972.69;5070580;28;20702;-65
2022/09/27 08:01:10;;;;;;;1.20;1.10;;;;;;;16.73;100.00;97972.09;5070258;28;20245;-64
2022/09/27 08:03:39;;;;;;;3.03;1.63;;;;;;;16.92;100.00;97975.16;5070529;28;20637;-65
2022/09/27 08:06:06;;;;;;;1.70;1.40;;;;;;;17.06;100.00;97991.63;5070090;28;20195;-65
2022/09/27 08:08:33;;;;;;;1.70;1.40;;;;;;;17.16;100.00;97992.16;5069894;28;20229;-65
2022/09/27 08:11:01;;;;;;;1.77;1.50;;;;;;;17.03;100.00;98003.13;5069988;28;20199;-65
2022/09/27 08:13:28;;;;;;;1.40;1.30;;;;;;;17.12;100.00;98006.41;5069646;28;20223;-64
2022/09/27 08:16:01;;;;;;;2.03;1.63;;;;;;;17.20;100.00;98004.53;5069902;28;20205;-65
2022/09/27 08:18:28;;;;;;;2.90;1.50;;;;;;;17.24;100.00;97992.06;5069609;28;20223;-65
2022/09/27 08:20:57;;;;;;;2.53;1.60;;;;;;;17.28;100.00;97990.72;5069639;28;20232;-65
2022/09/27 08:23:24;;;;;;;1.90;1.30;;;;;;;17.43;100.00;97981.16;5069532;28;20223;-65
2022/09/27 08:25:53;;;;;;;1.73;1.30;;;;;;;17.46;100.00;97981.78;5069673;28;20204;-65
2022/09/27 08:28:21;;;;;;;2.20;1.60;;;;;;;17.46;100.00;97981.78;5069802;28;20227;-65
2022/09/27 08:30:48;;;;;;;2.33;1.60;;;;;;;17.53;100.00;97985.22;5069972;28;20245;-65
2022/09/27 08:33:15;;;;;;;2.07;1.70;;;;;;;17.47;100.00;97988.53;5069751;28;20219;-65
2022/09/27 08:35:42;;;;;;;2.00;1.60;;;;;;;17.45;100.00;97988.72;5069851;28;20207;-65
2022/09/27 08:38:10;;;;;;;2.57;1.50;;;;;;;17.63;100.00;97988.34;5069791;28;20223;-65
2022/09/27 08:40:50;;;;;;;1.77;1.43;;;;;;;17.65;100.00;97986.34;5069328;28;20237;-65
2022/09/27 08:43:29;;;;;;;1.53;1.43;;;;;;;17.82;100.00;97954.13;5069791;28;20226;-65
2022/09/27 08:46:07;;;;;;;2.33;1.67;;;;;;;18.05;100.00;97937.63;5069354;28;20295;-65
2022/09/27 08:48:37;;;;;;;2.77;1.97;;;;;;;18.19;100.00;97929.00;5069223;28;20215;-65
2022/09/27 08:51:07;;;;;;;1.60;1.40;;;;;;;18.18;100.00;97924.00;5069597;28;20219;-65
2022/09/27 08:53:38;;;;;;;1.83;1.73;;;;;;;18.23;100.00;97943.13;5069690;28;20222;-64
2022/09/27 08:56:08;;;;;;;1.83;1.30;;;;;;;18.25;100.00;97936.00;5069266;28;20191;-65
2022/09/27 08:58:41;;;;;;;2.00;1.63;;;;;;;18.24;100.00;97933.63;5069691;28;20280;-65
2022/09/27 09:01:15;;;;;;;1.80;1.37;;;;;;;18.07;100.00;97940.84;5069061;28;20230;-65
2022/09/27 09:03:48;;;;;;;1.63;1.50;;;;;;;18.22;100.00;97946.72;5069695;28;20223;-65
2022/09/27 09:06:22;;;;;;;1.67;1.53;;;;;;;18.42;100.00;97939.09;5069191;28;20229;-65
2022/09/27 09:09:00;;;;;;;2.13;1.93;;;;;;;18.28;100.00;97935.63;5069319;28;20225;-65
2022/09/27 09:14:44;;;;;;;1.97;1.50;;;;;;;18.50;100.00;97951.91;5069499;28;20725;-65
2022/09/27 09:17:20;;;;;;;2.80;1.97;;;;;;;18.35;100.00;97955.56;5069252;28;20196;-64
2022/09/27 09:20:02;;;;;;;2.63;2.07;;;;;;;18.59;100.00;97955.16;5069142;28;20343;-64
2022/09/27 09:22:45;;;;;;;2.73;1.77;;;;;;;18.68;100.00;97943.66;5069066;28;20231;-64
2022/09/27 09:25:28;;;;;;;1.60;1.50;;;;;;;18.84;100.00;97934.00;5069333;28;20628;-64
2022/09/27 09:28:07;;;;;;;1.53;1.43;;;;;;;18.87;100.00;97938.78;5069040;28;20221;-64
2022/09/27 09:30:45;;;;;;;2.03;1.47;;;;;;;18.98;98.89;97931.28;5069077;28;20665;-65
2022/09/27 09:33:21;;;;;;;2.33;1.50;;;;;;;19.06;99.60;97935.50;5069419;28;20218;-65
2022/09/27 09:35:53;;;;;;;3.33;2.20;;;;;;;18.99;99.40;97937.25;5069057;28;20187;-64
2022/09/27 09:38:25;;;;;;;3.57;1.80;;;;;;;18.99;99.97;97937.25;5068784;28;20787;-65
2022/09/27 09:40:58;;;;;;;2.17;1.60;;;;;;;19.05;100.00;97936.47;5068869;28;20226;-64
2022/09/27 09:43:32;;;;;;;3.77;2.70;;;;;;;19.17;100.00;97918.59;5068938;28;20251;-65
2022/09/27 09:46:07;;;;;;;2.40;1.90;;;;;;;19.20;99.62;97913.81;5068753;28;20210;-64
2022/09/27 09:48:42;;;;;;;3.00;1.97;;;;;;;19.27;98.65;97913.03;5068827;28;20212;-65
2022/09/27 09:51:14;;;;;;;2.30;1.63;;;;;;;19.42;99.31;97916.25;5068741;28;20196;-64
2022/09/27 09:53:49;;;;;;;2.53;2.30;;;;;;;19.36;98.67;97910.06;5068783;28;20344;-64
2022/09/27 09:56:23;;;;;;;2.47;2.10;;;;;;;19.44;98.57;97915.06;5068763;28;20594;-64
2022/09/27 09:58:54;;;;;;;1.73;1.63;;;;;;;19.53;98.18;97913.09;5069019;28;20220;-64
2022/09/27 10:01:26;;;;;;;2.73;2.00;;;;;;;19.52;98.67;97908.09;5068681;28;20495;-64
2022/09/27 10:03:55;;;;;;;2.20;1.67;;;;;;;19.84;99.34;97919.56;5068641;28;20217;-64
2022/09/27 10:06:24;;;;;;;1.50;1.40;;;;;;;20.07;98.34;97919.97;5068588;28;20253;-65
2022/09/27 10:08:53;;;;;;;2.40;1.90;;;;;;;20.24;96.16;97919.53;5068606;28;20233;-65
2022/09/27 10:11:25;;;;;;;1.50;1.10;;;;;;;20.42;96.82;97916.31;5068499;28;20244;-65
2022/09/27 10:13:54;;;;;;;1.73;1.50;;;;;;;20.33;93.97;97913.13;5070648;28;20731;-65
2022/09/27 10:16:23;;;;;;;2.40;1.60;;;;;;;20.62;94.21;97916.31;5072265;28;20197;-65
2022/09/27 10:18:53;;;;;;;1.93;1.50;;;;;;;20.72;94.85;97919.28;5072177;28;20597;-65
2022/09/27 10:21:22;;;;;;;1.87;1.30;;;;;;;20.77;92.81;97920.28;5072425;28;20229;-65
2022/09/27 10:24:09;;;;;;;1.97;1.60;;;;;;;20.74;91.97;97909.47;5072019;28;20214;-65
2022/09/27 10:26:37;;;;;;;1.50;1.20;;;;;;;20.89;89.76;97906.66;5072111;28;20202;-65
2022/09/27 10:29:32;;;;;;;1.47;1.30;;;;;;;21.18;89.87;97902.72;5071925;28;20612;-65
2022/09/27 10:32:03;;;;;;;1.33;1.20;;;;;;;21.30;87.57;97902.84;5036162;28;20196;-66
2022/09/27 10:34:33;;;;;;;1.97;1.70;;;;;;;21.38;87.63;97911.25;5072062;28;20213;-65
2022/09/27 10:37:16;;;;;;;2.13;1.60;;;;;;;21.46;87.16;97915.38;5072053;28;20219;-65
2022/09/27 10:43:26;;;;;;;0.87;0.80;;;;;;;21.64;83.86;97909.44;5071977;28;20224;-65
2022/09/27 10:46:05;;;;;;;1.17;1.00;;;;;;;21.52;82.90;97909.34;5071540;28;20205;-65
2022/09/27 10:48:33;;;;;;;2.13;1.47;;;;;;;21.47;83.63;97920.38;5071899;28;20631;-65
2022/09/27 10:51:02;;;;;;;1.47;1.30;;;;;;;21.46;84.97;97903.16;5071557;28;20212;-65
2022/09/27 10:53:30;;;;;;;1.67;1.50;;;;;;;21.46;85.50;97895.38;5071753;28;20235;-65
2022/09/27 10:55:58;;;;;;;1.50;1.20;;;;;;;21.46;84.99;97900.56;5071458;28;20202;-66
2022/09/27 10:58:29;;;;;;;2.40;1.43;;;;;;;21.52;84.86;97898.13;5071245;28;20217;-66
2022/09/27 11:01:00;;;;;;;1.47;1.17;;;;;;;21.57;85.51;97893.91;5071420;28;20227;-66
2022/09/27 11:03:28;;;;;;;1.43;1.27;;;;;;;21.61;86.06;97896.88;5071264;28;20367;-65
2022/09/27 11:05:58;;;;;;;1.53;1.20;;;;;;;21.64;86.03;97899.06;5071241;28;20701;-65
2022/09/27 11:08:31;;;;;;;1.90;1.50;;;;;;;21.64;86.26;97902.47;5071029;28;20790;-65
2022/09/27 11:11:05;;;;;;;1.40;1.30;;;;;;;21.63;87.30;97902.66;5071237;28;20206;-65
2022/09/27 11:13:34;;;;;;;1.50;1.40;;;;;;;21.57;87.93;97903.50;5071658;28;20227;-65
2022/09/27 11:16:19;;;;;;;2.10;1.47;;;;;;;21.55;89.03;97915.91;5071226;28;20209;-65
2022/09/27 11:18:57;;;;;;;2.00;1.73;;;;;;;21.38;90.12;97936.41;5071505;28;20647;-65
2022/09/27 11:21:40;;;;;;;1.43;1.30;;;;;;;21.14;92.28;97930.13;5070865;28;20286;-65
2022/09/27 11:24:28;;;;;;;2.40;1.60;;;;;;;20.90;94.08;97923.81;5070227;28;20276;-65
2022/09/27 11:27:08;;;;;;;1.83;1.47;;;;;;;20.85;95.36;97911.44;5070661;28;20201;-65
2022/09/27 11:29:49;;;;;;;2.33;1.70;;;;;;;20.91;96.44;97905.41;5070878;28;20707;-65
2022/09/27 11:32:25;;;;;;;2.07;1.40;;;;;;;20.79;96.15;97914.84;5070802;28;20207;-66
2022/09/27 11:35:10;;;;;;;1.73;1.63;;;;;;;20.65;95.63;97900.31;5070801;28;20212;-65
2022/09/27 11:37:46;;;;;;;2.50;1.50;;;;;;;20.49;96.03;97902.31;5070754;28;20220;-65
2022/09/27 11:40:26;;;;;;;2.47;1.57;;;;;;;20.47;95.69;97906.91;5070538;28;20234;-65
2022/09/27 11:43:31;;;;;;;1.60;1.30;;;;;;;20.49;95.78;97902.31;5070496;28;20223;-65
2022/09/27 11:46:08;;;;;;;2.17;1.80;;;;;;;20.31;96.83;97899.56;5038937;28;20225;-65
2022/09/27 11:49:07;;;;;;;1.60;1.47;;;;;;;20.33;97.39;97905.34;5070513;28;20217;-65
2022/09/27 11:51:51;;;;;;;2.53;1.57;;;;;;;20.34;97.17;97896.56;5070373;28;20576;-65
2022/09/27 11:54:31;;;;;;;2.07;1.60;;;;;;;20.34;97.84;97893.97;5070123;28;20639;-65